TimeEDT,TemperatureF,Dew PointF,Humidity,Sea Level PressureIn,VisibilityMPH,Wind Direction,Wind SpeedMPH,Gust SpeedMPH,PrecipitationIn,Events,Conditions,WindDirDegrees,DateUTC
12:16 AM,32.0,27.0,82,29.86,10.0,NW,9.2,-,N/A,,Overcast,320,2012-11-03 04:16:00
12:28 AM,32.0,27.0,82,29.87,10.0,NW,10.4,-,N/A,,Overcast,310,2012-11-03 04:28:00
12:42 AM,32.0,27.0,82,29.87,10.0,NW,10.4,-,N/A,,Overcast,320,2012-11-03 04:42:00
1:37 AM,32.0,27.0,82,29.87,10.0,WNW,10.4,-,N/A,,Overcast,300,2012-11-03 05:37:00
1:53 AM,32.0,28.0,85,29.92,10.0,WNW,12.7,-,N/A,,Overcast,300,2012-11-03 05:53:00
2:53 AM,33.1,28.0,82,29.92,10.0,WNW,9.2,-,N/A,,Overcast,290,2012-11-03 06:53:00
3:28 AM,32.0,28.9,88,29.88,4.0,WNW,9.2,-,0.00,Rain,Light Freezing Rain,300,2012-11-03 07:28:00
3:39 AM,32.0,28.0,85,29.88,8.0,WNW,10.4,-,0.00,,Overcast,300,2012-11-03 07:39:00
3:53 AM,32.0,28.9,88,29.92,10.0,WNW,6.9,-,0.00,,Overcast,300,2012-11-03 07:53:00
4:53 AM,33.1,28.0,82,29.94,10.0,NW,13.8,-,0.00,,Overcast,310,2012-11-03 08:53:00
5:00 AM,33.1,28.0,82,29.89,10.0,WNW,13.8,-,N/A,,Overcast,300,2012-11-03 09:00:00
5:36 AM,33.1,28.0,82,29.89,10.0,WNW,13.8,-,N/A,,Overcast,300,2012-11-03 09:36:00
5:53 AM,33.1,28.0,82,29.95,10.0,WNW,10.4,-,N/A,,Overcast,300,2012-11-03 09:53:00
6:53 AM,33.1,28.0,82,29.96,8.0,NW,13.8,-,0.00,Snow,Light Snow,310,2012-11-03 10:53:00
7:38 AM,33.1,28.9,85,29.93,3.0,NW,11.5,-,0.00,Snow,Light Snow,310,2012-11-03 11:38:00
7:53 AM,33.1,28.9,85,29.98,3.0,NW,10.4,-,0.00,Snow,Light Snow,320,2012-11-03 11:53:00
8:46 AM,33.1,28.0,82,29.95,10.0,WNW,10.4,-,0.00,,Overcast,300,2012-11-03 12:46:00
8:53 AM,33.1,28.0,82,30.01,10.0,WNW,10.4,-,0.00,,Overcast,300,2012-11-03 12:53:00
9:10 AM,34.0,27.0,75,29.96,10.0,WNW,9.2,-,N/A,,Overcast,300,2012-11-03 13:10:00
9:48 AM,33.8,28.4,81,29.96,10.0,WNW,10.4,-,N/A,,Overcast,300,2012-11-03 13:48:00
9:53 AM,34.0,28.0,79,30.01,10.0,NW,12.7,-,N/A,,Overcast,310,2012-11-03 13:53:00
10:16 AM,34.0,28.0,79,29.97,2.5,WNW,13.8,-,0.00,Snow,Light Snow,300,2012-11-03 14:16:00
10:24 AM,34.0,28.9,82,29.97,5.0,NW,12.7,20.7,0.01,Snow,Light Snow,310,2012-11-03 14:24:00
10:53 AM,35.1,28.9,78,30.02,10.0,NW,11.5,20.7,0.01,,Overcast,310,2012-11-03 14:53:00
11:53 AM,36.0,28.0,73,30.02,10.0,NW,13.8,-,N/A,,Overcast,320,2012-11-03 15:53:00
12:14 PM,35.1,28.9,78,29.98,1.5,NNW,11.5,-,0.00,Snow,Light Snow,340,2012-11-03 16:14:00
12:36 PM,34.0,30.0,85,29.98,0.8,NNW,13.8,-,0.01,Snow,Light Snow,330,2012-11-03 16:36:00
12:46 PM,35.1,30.0,82,29.98,3.0,NNW,10.4,-,0.01,Snow,Light Snow,340,2012-11-03 16:46:00
12:53 PM,35.1,28.9,78,30.03,9.0,NW,12.7,17.3,0.01,Snow,Light Snow,310,2012-11-03 16:53:00
1:53 PM,37.0,28.0,70,30.03,10.0,NW,12.7,18.4,0.00,,Overcast,310,2012-11-03 17:53:00
2:13 PM,36.0,27.0,70,29.98,10.0,NW,16.1,24.2,N/A,,Overcast,310,2012-11-03 18:13:00
2:22 PM,36.0,27.0,70,29.98,10.0,NW,17.3,-,N/A,,Overcast,310,2012-11-03 18:22:00
2:53 PM,36.0,27.0,70,30.03,7.0,NNW,10.4,-,0.00,Snow,Light Snow,330,2012-11-03 18:53:00
3:53 PM,35.1,27.0,72,30.04,10.0,NW,11.5,23.0,0.00,,Overcast,320,2012-11-03 19:53:00
4:53 PM,35.1,27.0,72,30.05,9.0,NW,10.4,-,0.00,,Overcast,320,2012-11-03 20:53:00
5:53 PM,35.1,28.0,76,30.06,7.0,WNW,6.9,-,0.00,Snow,Light Snow,300,2012-11-03 21:53:00
6:17 PM,34.0,28.0,79,30.01,9.0,WNW,10.4,-,0.00,,Overcast,290,2012-11-03 22:17:00
6:27 PM,34.0,28.0,79,30.01,10.0,WNW,10.4,-,0.00,,Overcast,290,2012-11-03 22:27:00
6:53 PM,34.0,28.0,79,30.06,10.0,WNW,9.2,-,0.00,,Overcast,300,2012-11-03 22:53:00
7:15 PM,34.0,28.0,79,30.01,10.0,WNW,8.1,-,N/A,,Overcast,300,2012-11-03 23:15:00
7:26 PM,34.0,28.0,79,30.02,10.0,NW,6.9,-,N/A,,Overcast,310,2012-11-03 23:26:00
7:48 PM,33.8,28.4,81,30.01,10.0,NW,8.1,-,N/A,,Overcast,320,2012-11-03 23:48:00
7:53 PM,34.0,28.0,79,30.06,10.0,NW,9.2,-,N/A,,Overcast,310,2012-11-03 23:53:00
8:53 PM,34.0,27.0,75,30.06,10.0,NNW,11.5,-,N/A,,Overcast,330,2012-11-04 00:53:00
9:53 PM,34.0,27.0,75,30.07,10.0,NW,9.2,-,N/A,,Overcast,320,2012-11-04 01:53:00
10:53 PM,34.0,27.0,75,30.07,10.0,NW,11.5,-,N/A,,Overcast,320,2012-11-04 02:53:00
11:53 PM,34.0,27.0,75,30.07,10.0,NW,5.8,-,N/A,,Overcast,310,2012-11-04 03:53:00